createdAt,value
2023-12-08T00:02:27.059Z,84.23
2023-12-08T00:04:55.964Z,84.25
2023-12-08T00:07:24.537Z,84.24
2023-12-08T00:09:53.630Z,84.23
2023-12-08T00:12:22.926Z,84.18
2023-12-08T00:14:52.878Z,84.12
2023-12-08T00:17:21.831Z,84.12
2023-12-08T00:19:50.776Z,84.08
2023-12-08T00:22:19.830Z,83.92
2023-12-08T00:24:49.136Z,83.90
2023-12-08T00:27:17.598Z,83.91
2023-12-08T00:29:46.204Z,83.95
2023-12-08T00:32:14.795Z,84.01
2023-12-08T00:34:43.590Z,84.05
2023-12-08T00:37:12.034Z,84.05
2023-12-08T00:39:42.034Z,84.07
2023-12-08T00:42:11.725Z,84.10
2023-12-08T00:44:40.165Z,84.08
2023-12-08T00:47:08.733Z,84.08
2023-12-08T00:49:37.841Z,84.11
2023-12-08T00:52:07.744Z,84.09
2023-12-08T00:54:36.227Z,84.10
2023-12-08T00:57:05.216Z,84.12
2023-12-08T00:59:33.862Z,84.11
2023-12-08T01:02:02.298Z,84.13
2023-12-08T01:04:30.752Z,84.15
2023-12-08T01:06:59.353Z,84.14
2023-12-08T01:09:28.026Z,84.15
2023-12-08T01:11:56.471Z,84.16
2023-12-08T01:14:25.098Z,84.19
2023-12-08T01:16:53.984Z,84.20
2023-12-08T01:19:22.540Z,84.23
2023-12-08T01:21:51.465Z,84.22
2023-12-08T01:24:19.978Z,84.22
2023-12-08T01:26:48.579Z,84.21
2023-12-08T01:29:18.545Z,84.21
2023-12-08T01:31:47.336Z,84.23
2023-12-08T01:34:16.276Z,84.22
2023-12-08T01:36:45.075Z,84.22
2023-12-08T01:39:14.196Z,84.22
2023-12-08T01:41:42.838Z,84.22
2023-12-08T01:44:11.786Z,84.23
2023-12-08T01:46:40.277Z,84.27
2023-12-08T01:49:09.154Z,84.36
2023-12-08T01:51:37.846Z,84.38
2023-12-08T01:54:07.739Z,84.37
2023-12-08T01:56:37.331Z,84.37
2023-12-08T01:59:06.084Z,84.32
2023-12-08T02:01:35.162Z,84.19
2023-12-08T02:04:04.751Z,84.12
2023-12-08T02:06:33.380Z,84.07
2023-12-08T02:09:01.879Z,84.07
2023-12-08T02:11:30.493Z,84.09
2023-12-08T02:13:59.604Z,84.10
2023-12-08T02:16:35.313Z,84.12
2023-12-08T02:19:07.860Z,84.14
2023-12-08T02:21:37.256Z,84.14
2023-12-08T02:24:06.212Z,84.17
2023-12-08T02:26:34.935Z,84.17
2023-12-08T02:29:07.300Z,84.18
2023-12-08T02:31:49.585Z,84.19
2023-12-08T02:34:19.959Z,84.22
2023-12-08T02:36:51.669Z,84.27
2023-12-08T02:39:21.664Z,84.29
2023-12-08T02:41:50.535Z,84.32
2023-12-08T02:44:19.170Z,84.40
2023-12-08T02:46:47.947Z,84.60
2023-12-08T02:49:16.642Z,84.64
2023-12-08T02:51:45.336Z,84.41
2023-12-08T02:54:13.927Z,84.25
2023-12-08T02:56:42.827Z,84.20
2023-12-08T02:59:11.181Z,84.18
2023-12-08T03:01:39.871Z,84.19
2023-12-08T03:04:08.663Z,84.21
2023-12-08T03:06:37.134Z,84.32
2023-12-08T03:09:06.385Z,84.40
2023-12-08T03:11:35.086Z,84.39
2023-12-08T03:14:03.604Z,84.37
2023-12-08T03:16:32.086Z,84.26
2023-12-08T03:19:00.776Z,84.17
2023-12-08T03:21:29.573Z,84.14
2023-12-08T03:23:58.429Z,84.21
2023-12-08T03:26:27.342Z,84.26
2023-12-08T03:28:55.916Z,84.38
2023-12-08T03:31:32.716Z,84.39
2023-12-08T03:34:01.542Z,84.44
2023-12-08T03:36:30.482Z,84.42
2023-12-08T03:38:59.190Z,84.39
2023-12-08T03:41:27.752Z,84.32
2023-12-08T03:43:56.865Z,84.26
2023-12-08T03:46:25.435Z,84.27
2023-12-08T03:48:55.569Z,84.28
2023-12-08T03:51:24.451Z,84.35
2023-12-08T03:53:53.063Z,84.47
2023-12-08T03:56:21.567Z,84.45
2023-12-08T03:58:49.893Z,84.41
2023-12-08T04:01:21.829Z,84.40
2023-12-08T04:03:50.546Z,84.43
2023-12-08T04:06:19.566Z,84.44
2023-12-08T04:08:48.361Z,84.44
2023-12-08T04:11:16.899Z,84.45
2023-12-08T04:13:45.516Z,84.45
2023-12-08T04:16:15.908Z,84.45
2023-12-08T04:18:44.521Z,84.47
2023-12-08T04:21:22.104Z,84.46
2023-12-08T04:23:50.484Z,84.49
2023-12-08T04:26:22.421Z,84.50
2023-12-08T04:28:50.803Z,84.48
2023-12-08T04:31:19.597Z,84.47
2023-12-08T04:33:49.673Z,84.47
2023-12-08T04:36:18.417Z,84.58
2023-12-08T04:38:47.107Z,84.62
2023-12-08T04:41:18.298Z,84.59
2023-12-08T04:43:48.804Z,84.49
2023-12-08T04:46:19.504Z,84.31
2023-12-08T04:48:48.524Z,84.25
2023-12-08T04:51:17.272Z,84.20
2023-12-08T04:53:45.694Z,84.17
2023-12-08T04:56:14.457Z,84.13
2023-12-08T04:58:42.830Z,84.17
2023-12-08T05:01:15.631Z,84.24
2023-12-08T05:03:44.112Z,84.27
2023-12-08T05:06:12.589Z,84.27
2023-12-08T05:08:41.434Z,84.27
2023-12-08T05:11:09.946Z,84.24
2023-12-08T05:13:38.515Z,84.26
2023-12-08T05:16:07.516Z,84.28
2023-12-08T05:18:36.876Z,84.25
2023-12-08T05:21:05.641Z,84.26
2023-12-08T05:23:34.208Z,84.26
2023-12-08T05:26:02.978Z,84.25
2023-12-08T05:28:31.464Z,84.25
2023-12-08T05:31:00.195Z,84.23
2023-12-08T05:33:29.281Z,84.22
2023-12-08T05:35:58.283Z,84.25
2023-12-08T05:38:27.331Z,84.26
2023-12-08T05:40:57.361Z,84.26
2023-12-08T05:43:27.164Z,84.25
2023-12-08T05:45:55.536Z,84.17
2023-12-08T05:48:24.503Z,84.18
2023-12-08T05:50:53.385Z,84.21
2023-12-08T05:53:21.918Z,84.25
2023-12-08T05:55:51.316Z,84.31
2023-12-08T05:58:19.736Z,84.38
2023-12-08T06:00:48.413Z,84.49
2023-12-08T06:03:18.827Z,84.61
2023-12-08T06:05:47.546Z,84.66
2023-12-08T06:08:16.179Z,84.74
2023-12-08T06:10:48.028Z,84.78
2023-12-08T06:13:17.762Z,84.86
2023-12-08T06:15:46.086Z,85.00
2023-12-08T06:18:15.438Z,85.03
2023-12-08T06:20:44.585Z,85.05
2023-12-08T06:23:13.213Z,85.06
2023-12-08T06:25:43.541Z,85.07
2023-12-08T06:28:12.829Z,85.09
2023-12-08T06:30:41.896Z,85.04
2023-12-08T06:33:10.662Z,85.02
2023-12-08T06:35:39.418Z,85.05
2023-12-08T06:38:07.974Z,85.02
2023-12-08T06:40:36.561Z,85.00
2023-12-08T06:43:05.577Z,84.98
2023-12-08T06:45:34.496Z,84.95
2023-12-08T06:48:03.219Z,84.93
2023-12-08T06:50:32.316Z,84.93
2023-12-08T06:53:01.753Z,84.86
2023-12-08T06:55:30.831Z,84.75
2023-12-08T06:57:59.414Z,84.64
2023-12-08T07:00:28.367Z,84.56
2023-12-08T07:02:57.749Z,84.55
2023-12-08T07:05:27.037Z,84.45
2023-12-08T07:07:57.961Z,84.42
2023-12-08T07:10:27.948Z,84.36
2023-12-08T07:12:57.383Z,84.35
2023-12-08T07:15:26.995Z,84.40
2023-12-08T07:17:57.103Z,84.43
2023-12-08T07:20:26.705Z,84.46
2023-12-08T07:22:58.166Z,84.45
2023-12-08T07:25:27.569Z,84.41
2023-12-08T07:27:57.232Z,84.39
2023-12-08T07:30:26.234Z,84.36
2023-12-08T07:32:55.680Z,84.36
2023-12-08T07:35:24.554Z,84.36
2023-12-08T07:37:53.446Z,84.31
2023-12-08T07:40:22.136Z,84.27
2023-12-08T07:42:51.037Z,84.23
2023-12-08T07:45:20.200Z,84.20
2023-12-08T07:47:52.202Z,84.19
2023-12-08T07:50:21.498Z,84.18
2023-12-08T07:52:50.189Z,84.15
2023-12-08T07:55:18.869Z,84.05
2023-12-08T07:57:48.195Z,84.01
2023-12-08T08:00:18.410Z,84.02
2023-12-08T08:02:47.577Z,84.03
2023-12-08T08:05:17.520Z,84.01
2023-12-08T08:07:46.668Z,83.93
2023-12-08T08:10:15.475Z,83.86
2023-12-08T08:12:44.786Z,83.87
2023-12-08T08:15:14.205Z,83.90
2023-12-08T08:17:43.793Z,83.92
2023-12-08T08:20:13.700Z,83.86
2023-12-08T08:22:43.919Z,83.98
2023-12-08T08:25:13.186Z,84.22
2023-12-08T08:27:42.475Z,84.33
2023-12-08T08:30:12.244Z,84.38
2023-12-08T08:32:41.828Z,84.48
2023-12-08T08:35:11.717Z,84.59
2023-12-08T08:37:41.208Z,84.60
2023-12-08T08:40:11.370Z,84.66
2023-12-08T08:42:40.671Z,84.76
2023-12-08T08:45:11.355Z,84.84
2023-12-08T08:47:41.719Z,84.83
2023-12-08T08:50:11.004Z,84.87
2023-12-08T08:52:40.363Z,84.90
2023-12-08T08:55:12.107Z,84.86
2023-12-08T08:57:41.471Z,84.78
2023-12-08T09:00:14.282Z,84.76
2023-12-08T09:02:45.998Z,84.81
2023-12-08T09:05:16.427Z,84.82
2023-12-08T09:07:46.476Z,84.82
2023-12-08T09:10:17.283Z,84.80
2023-12-08T09:12:48.669Z,84.84
2023-12-08T09:15:18.184Z,84.85
2023-12-08T09:17:47.987Z,84.77
2023-12-08T09:20:18.869Z,84.76
2023-12-08T09:22:48.135Z,84.81
2023-12-08T09:25:16.956Z,84.84
2023-12-08T09:27:45.807Z,84.84
2023-12-08T09:30:15.975Z,84.82
2023-12-08T09:32:44.499Z,84.74
2023-12-08T09:35:13.762Z,84.66
2023-12-08T09:37:42.770Z,84.63
2023-12-08T09:40:15.432Z,84.56
2023-12-08T09:42:53.532Z,84.55
2023-12-08T09:45:22.760Z,84.56
2023-12-08T09:47:55.907Z,84.52
2023-12-08T09:50:25.758Z,84.42
2023-12-08T09:52:56.344Z,84.47
2023-12-08T09:55:28.258Z,84.46
2023-12-08T09:57:59.369Z,84.33
2023-12-08T10:00:32.825Z,84.23
2023-12-08T10:03:02.219Z,84.15
2023-12-08T10:05:31.360Z,84.03
2023-12-08T10:08:02.491Z,83.96
2023-12-08T10:10:31.810Z,83.83
2023-12-08T10:13:01.718Z,83.88
2023-12-08T10:15:32.700Z,83.97
2023-12-08T10:18:03.268Z,84.07
2023-12-08T10:20:33.025Z,84.10
2023-12-08T10:23:03.815Z,84.16
2023-12-08T10:25:34.315Z,84.21
2023-12-08T10:28:05.346Z,84.21
2023-12-08T10:30:35.508Z,84.15
2023-12-08T10:33:05.789Z,84.25
2023-12-08T10:35:39.529Z,84.21
2023-12-08T10:38:09.712Z,84.25
2023-12-08T10:41:27.019Z,84.15
2023-12-08T10:43:59.310Z,84.06
2023-12-08T10:46:34.572Z,83.95
2023-12-08T10:49:06.235Z,83.82
2023-12-08T10:51:38.028Z,83.81
2023-12-08T10:54:08.392Z,83.73
2023-12-08T10:56:38.575Z,83.57
2023-12-08T10:59:11.182Z,83.55
2023-12-08T11:01:41.645Z,83.52
2023-12-08T11:04:14.343Z,83.45
2023-12-08T11:07:05.607Z,83.44
2023-12-08T11:09:40.370Z,83.35
2023-12-08T11:12:15.362Z,83.39
2023-12-08T11:14:55.572Z,83.59
2023-12-08T11:17:37.473Z,83.76
2023-12-08T11:20:09.551Z,83.84
2023-12-08T11:22:39.154Z,83.85
2023-12-08T11:25:17.349Z,83.76
2023-12-08T11:28:00.846Z,83.62
2023-12-08T11:30:57.983Z,83.47
2023-12-08T11:33:33.467Z,83.38
2023-12-08T11:36:15.927Z,83.18
2023-12-08T11:38:45.491Z,83.13
2023-12-08T11:41:17.503Z,83.12
2023-12-08T11:43:48.053Z,83.19
2023-12-08T11:46:17.037Z,83.22
2023-12-08T11:48:50.628Z,83.14
2023-12-08T11:51:19.556Z,83.09
2023-12-08T11:53:59.159Z,83.09
2023-12-08T11:56:44.066Z,83.08
2023-12-08T11:59:25.841Z,83.08
2023-12-08T12:01:55.375Z,83.08
2023-12-08T12:04:24.440Z,83.05
2023-12-08T12:06:55.116Z,82.85
2023-12-08T12:09:24.694Z,82.73
2023-12-08T12:11:56.767Z,82.71
2023-12-08T12:14:27.496Z,82.63
2023-12-08T12:16:56.246Z,82.56
2023-12-08T12:19:25.976Z,82.52
2023-12-08T12:21:54.846Z,82.46
2023-12-08T12:24:23.627Z,82.48
2023-12-08T12:26:52.864Z,82.42
2023-12-08T12:29:22.744Z,82.32
2023-12-08T12:31:52.956Z,82.27
2023-12-08T12:34:21.818Z,82.25
2023-12-08T12:36:51.271Z,82.10
2023-12-08T12:39:21.113Z,82.02
2023-12-08T12:41:50.077Z,82.06
2023-12-08T12:44:19.173Z,82.01
2023-12-08T12:46:48.373Z,82.01
2023-12-08T12:49:17.342Z,82.11
2023-12-08T12:51:46.660Z,82.10
2023-12-08T12:54:23.330Z,82.07
2023-12-08T12:56:53.340Z,81.96
2023-12-08T12:59:22.135Z,81.90
2023-12-08T13:01:50.816Z,81.90
2023-12-08T13:04:19.428Z,81.83
2023-12-08T13:06:47.995Z,81.98
2023-12-08T13:09:27.145Z,82.10
2023-12-08T13:11:56.275Z,82.21
2023-12-08T13:14:25.517Z,82.29
2023-12-08T13:16:54.811Z,82.27
2023-12-08T13:19:23.642Z,82.31
2023-12-08T13:21:52.495Z,82.37
2023-12-08T13:24:20.990Z,82.38
2023-12-08T13:26:49.982Z,82.44
2023-12-08T13:29:19.380Z,82.39
2023-12-08T13:31:48.807Z,82.42
2023-12-08T13:34:17.806Z,82.42
2023-12-08T13:36:46.889Z,82.40
2023-12-08T13:39:15.664Z,82.39
2023-12-08T13:41:44.770Z,82.36
2023-12-08T13:44:13.769Z,82.37
2023-12-08T13:46:42.647Z,82.42
2023-12-08T13:49:12.192Z,82.36
2023-12-08T13:51:42.225Z,82.41
2023-12-08T13:54:11.950Z,82.35
2023-12-08T13:56:40.619Z,82.35
2023-12-08T13:59:09.832Z,82.30
2023-12-08T14:01:38.597Z,82.30
2023-12-08T14:04:09.276Z,82.39
2023-12-08T14:06:38.646Z,82.37
2023-12-08T14:09:07.322Z,82.39
2023-12-08T14:11:35.897Z,82.49
2023-12-08T14:14:04.806Z,82.49
2023-12-08T14:16:33.550Z,82.49
2023-12-08T14:19:03.630Z,82.54
2023-12-08T14:21:32.093Z,82.62
2023-12-08T14:24:00.800Z,82.61
2023-12-08T14:26:29.559Z,82.60
2023-12-08T14:28:58.125Z,82.62
2023-12-08T14:31:26.925Z,82.71
2023-12-08T14:33:57.026Z,82.74
2023-12-08T14:36:25.640Z,82.82
2023-12-08T14:38:56.194Z,82.80
2023-12-08T14:41:24.912Z,82.85
2023-12-08T14:43:55.963Z,82.90
2023-12-08T14:46:24.572Z,82.92
2023-12-08T14:48:53.375Z,82.96
2023-12-08T14:51:24.270Z,82.99
2023-12-08T14:53:53.389Z,83.01
2023-12-08T14:56:22.058Z,83.07
2023-12-08T14:58:51.637Z,83.10
2023-12-08T15:01:22.681Z,83.15
2023-12-08T15:03:51.600Z,83.19
2023-12-08T15:06:20.838Z,83.20
2023-12-08T15:08:49.722Z,83.25
2023-12-08T15:11:21.529Z,83.23
2023-12-08T15:13:50.456Z,83.25
2023-12-08T15:16:19.524Z,83.20
2023-12-08T15:18:48.675Z,83.21
2023-12-08T15:21:22.931Z,83.26
2023-12-08T15:23:57.938Z,83.28
2023-12-08T15:26:28.333Z,83.33
2023-12-08T15:28:58.198Z,83.35
2023-12-08T15:31:31.487Z,83.40
2023-12-08T15:34:04.290Z,83.46
2023-12-08T15:36:37.918Z,83.44
2023-12-08T15:39:10.519Z,83.45
2023-12-08T15:41:47.840Z,83.44
2023-12-08T15:44:17.469Z,83.45
2023-12-08T15:46:47.087Z,83.50
2023-12-08T15:49:17.099Z,83.58
2023-12-08T15:51:47.030Z,83.62
2023-12-08T15:54:16.825Z,83.67
2023-12-08T15:56:46.636Z,83.64
2023-12-08T15:59:16.068Z,83.69
2023-12-08T16:01:45.115Z,83.71
2023-12-08T16:04:14.338Z,83.71
2023-12-08T16:06:44.611Z,83.69
2023-12-08T16:09:13.871Z,83.68
2023-12-08T16:11:43.173Z,83.70
2023-12-08T16:14:12.552Z,83.69
2023-12-08T16:16:42.507Z,83.63
2023-12-08T16:19:13.076Z,83.62
2023-12-08T16:21:43.267Z,83.62
2023-12-08T16:24:12.904Z,83.61
2023-12-08T16:26:41.928Z,83.62
2023-12-08T16:29:11.316Z,83.62
2023-12-08T16:31:41.564Z,83.64
2023-12-08T16:34:11.727Z,83.61
2023-12-08T16:36:41.290Z,83.56
2023-12-08T16:39:14.866Z,83.54
2023-12-08T16:41:49.609Z,83.51
2023-12-08T16:44:19.609Z,83.48
2023-12-08T16:46:49.962Z,83.44
2023-12-08T16:49:19.704Z,83.41
2023-12-08T16:51:51.541Z,83.40
2023-12-08T16:54:22.589Z,83.37
2023-12-08T16:56:53.206Z,83.40
2023-12-08T16:59:22.885Z,83.37
2023-12-08T17:01:53.125Z,83.42
2023-12-08T17:04:23.163Z,83.47
2023-12-08T17:06:57.025Z,83.51
2023-12-08T17:09:27.191Z,83.53
2023-12-08T17:11:58.388Z,83.53
2023-12-08T17:14:28.439Z,83.49
2023-12-08T17:17:02.946Z,83.40
2023-12-08T17:19:34.265Z,83.37
2023-12-08T17:22:05.250Z,83.37
2023-12-08T17:24:35.496Z,83.36
2023-12-08T17:27:06.034Z,83.35
2023-12-08T17:29:36.117Z,83.38
2023-12-08T17:32:06.556Z,83.37
2023-12-08T17:34:36.975Z,83.37
2023-12-08T17:37:07.918Z,83.36
2023-12-08T17:39:37.949Z,83.37
2023-12-08T17:42:10.024Z,83.38
2023-12-08T17:44:39.690Z,83.39
2023-12-08T17:47:12.749Z,83.39
2023-12-08T17:49:43.151Z,83.36
2023-12-08T17:52:13.074Z,83.35
2023-12-08T17:54:43.724Z,83.35
2023-12-08T17:57:14.352Z,83.32
2023-12-08T17:59:44.014Z,83.29
2023-12-08T18:02:14.641Z,83.26
2023-12-08T18:04:43.720Z,83.21
2023-12-08T18:07:13.857Z,83.17
2023-12-08T18:09:44.177Z,83.14
2023-12-08T18:12:14.582Z,83.09
2023-12-08T18:14:43.809Z,83.06
2023-12-08T18:17:13.613Z,83.04
2023-12-08T18:19:43.761Z,83.04
2023-12-08T18:22:13.465Z,83.02
2023-12-08T18:24:42.436Z,83.01
2023-12-08T18:27:20.070Z,82.97
2023-12-08T18:29:58.409Z,82.92
2023-12-08T18:32:28.315Z,82.90
2023-12-08T18:34:57.545Z,82.85
2023-12-08T18:37:26.315Z,82.80
2023-12-08T18:39:55.223Z,82.75
2023-12-08T18:42:26.070Z,82.71
2023-12-08T18:44:55.619Z,82.61
2023-12-08T18:47:24.758Z,82.50
2023-12-08T18:49:55.110Z,82.48
2023-12-08T18:52:25.161Z,82.51
2023-12-08T18:54:54.927Z,82.50
2023-12-08T18:57:25.542Z,82.45
2023-12-08T18:59:56.950Z,82.36
2023-12-08T19:02:27.742Z,82.25
2023-12-08T19:05:02.257Z,82.16
2023-12-08T19:07:33.235Z,82.09
2023-12-08T19:10:03.213Z,81.99
2023-12-08T19:12:32.370Z,81.90
2023-12-08T19:15:01.778Z,81.83
2023-12-08T19:17:31.657Z,81.80
2023-12-08T19:20:02.617Z,81.81
2023-12-08T19:22:31.871Z,81.78
2023-12-08T19:25:02.758Z,81.79
2023-12-08T19:27:33.235Z,81.82
2023-12-08T19:30:03.022Z,81.86
2023-12-08T19:32:32.806Z,81.92
2023-12-08T19:35:06.314Z,81.97
2023-12-08T19:37:36.960Z,81.98
2023-12-08T19:40:07.385Z,82.02
2023-12-08T19:42:37.518Z,82.02
2023-12-08T19:45:07.541Z,81.99
2023-12-08T19:47:37.334Z,81.96
2023-12-08T19:50:07.946Z,81.95
2023-12-08T19:52:38.869Z,81.90
2023-12-08T19:55:11.682Z,81.82
2023-12-08T19:57:43.683Z,81.79
2023-12-08T20:00:15.752Z,81.84
2023-12-08T20:02:47.016Z,81.90
2023-12-08T20:05:16.613Z,81.95
2023-12-08T20:07:47.653Z,81.99
2023-12-08T20:10:18.020Z,82.04
2023-12-08T20:12:48.469Z,82.07
2023-12-08T20:15:27.337Z,82.08
2023-12-08T20:18:00.171Z,82.10
2023-12-08T20:20:32.998Z,82.11
2023-12-08T20:23:02.825Z,82.11
2023-12-08T20:25:33.051Z,82.12
2023-12-08T20:28:04.069Z,82.12
2023-12-08T20:30:33.584Z,82.16
2023-12-08T20:33:04.102Z,82.13
2023-12-08T20:35:33.605Z,82.10
2023-12-08T20:38:02.597Z,82.10
2023-12-08T20:40:31.660Z,82.11
2023-12-08T20:43:03.556Z,82.10
2023-12-08T20:45:33.311Z,82.08
2023-12-08T20:48:03.232Z,82.05
2023-12-08T20:50:32.538Z,82.05
2023-12-08T20:53:02.097Z,82.06
2023-12-08T20:55:32.208Z,82.13
2023-12-08T20:58:01.528Z,82.13
2023-12-08T21:00:30.732Z,82.15
2023-12-08T21:03:01.110Z,82.17
2023-12-08T21:05:30.325Z,82.18
2023-12-08T21:08:00.132Z,82.18
2023-12-08T21:10:29.815Z,82.22
2023-12-08T21:12:59.700Z,82.25
2023-12-08T21:15:29.196Z,82.23
2023-12-08T21:17:58.508Z,82.26
2023-12-08T21:20:27.583Z,82.25
2023-12-08T21:22:56.810Z,82.20
2023-12-08T21:25:25.698Z,82.05
2023-12-08T21:27:56.038Z,81.89
2023-12-08T21:30:25.720Z,81.79
2023-12-08T21:32:55.206Z,81.79
2023-12-08T21:35:24.595Z,81.81
2023-12-08T21:37:54.510Z,81.82
2023-12-08T21:40:23.564Z,81.78
2023-12-08T21:42:54.816Z,81.78
2023-12-08T21:45:24.025Z,81.77
2023-12-08T21:47:53.139Z,81.76
2023-12-08T21:50:23.957Z,81.77
2023-12-08T21:52:54.252Z,81.77
2023-12-08T21:55:23.981Z,81.78
2023-12-08T21:57:53.514Z,81.81
2023-12-08T22:00:24.502Z,81.80
2023-12-08T22:02:56.173Z,81.79
2023-12-08T22:05:26.402Z,81.78
2023-12-08T22:07:56.437Z,81.79
2023-12-08T22:10:26.536Z,81.81
2023-12-08T22:12:55.956Z,81.80
2023-12-08T22:15:24.553Z,81.82
2023-12-08T22:17:54.069Z,81.81
2023-12-08T22:20:23.010Z,81.88
2023-12-08T22:22:52.525Z,81.85
2023-12-08T22:25:21.637Z,81.82
2023-12-08T22:27:50.807Z,81.80
2023-12-08T22:30:20.172Z,81.79
2023-12-08T22:32:49.433Z,81.80
2023-12-08T22:35:18.748Z,81.81
2023-12-08T22:37:50.242Z,81.89
2023-12-08T22:40:19.871Z,81.83
2023-12-08T22:42:49.625Z,81.89
2023-12-08T22:45:18.605Z,81.91
2023-12-08T22:47:49.145Z,81.96
2023-12-08T22:50:18.043Z,81.98
2023-12-08T22:52:46.945Z,82.01
2023-12-08T22:55:15.866Z,81.99
2023-12-08T22:57:44.302Z,81.90
2023-12-08T23:00:13.713Z,81.81
2023-12-08T23:02:42.777Z,81.73
2023-12-08T23:05:12.042Z,81.64
2023-12-08T23:07:40.527Z,81.60
2023-12-08T23:10:09.845Z,81.58
2023-12-08T23:12:39.315Z,81.54
2023-12-08T23:15:09.425Z,81.51
2023-12-08T23:17:39.110Z,81.49
2023-12-08T23:20:08.278Z,81.47
2023-12-08T23:22:36.745Z,81.43
2023-12-08T23:25:05.773Z,81.37
2023-12-08T23:27:34.432Z,81.31
2023-12-08T23:30:04.911Z,81.30
2023-12-08T23:32:33.717Z,81.31
2023-12-08T23:35:05.398Z,81.33
2023-12-08T23:37:34.085Z,81.35
2023-12-08T23:40:02.903Z,81.33
2023-12-08T23:42:31.917Z,81.29
2023-12-08T23:45:00.819Z,81.34
2023-12-08T23:47:29.770Z,81.41
2023-12-08T23:49:58.339Z,81.56
2023-12-08T23:52:27.302Z,81.67
2023-12-08T23:54:56.107Z,81.80
2023-12-08T23:57:24.629Z,81.94
2023-12-08T23:59:53.208Z,82.08
